sensor_id;sensor_type;location;lat;lon;timestamp;pressure;altitude;pressure_sealevel;temperature;humidity
13954;BME280;7049;49.444;8.522;2023-04-28T00:02:19;77554.44;;;-3.47;77.89
13954;BME280;7049;49.444;8.522;2023-04-28T00:07:22;77550.25;;;-3.47;79.66
13954;BME280;7049;49.444;8.522;2023-04-28T00:12:24;77541.88;;;-3.47;81.37
13954;BME280;7049;49.444;8.522;2023-04-28T00:17:25;77552.34;;;-3.47;82.81
13954;BME280;7049;49.444;8.522;2023-04-28T00:22:28;77537.69;;;-3.47;84.13
13954;BME280;7049;49.444;8.522;2023-04-28T00:27:31;77531.41;;;-3.47;85.28
13954;BME280;7049;49.444;8.522;2023-04-28T00:32:32;77529.31;;;-3.47;86.16
13954;BME280;7049;49.444;8.522;2023-04-28T00:37:36;77527.22;;;-3.47;86.97
13954;BME280;7049;49.444;8.522;2023-04-28T00:42:37;77516.78;;;-3.47;88.21
13954;BME280;7049;49.444;8.522;2023-04-28T00:47:41;77520.94;;;-3.47;89.27
13954;BME280;7049;49.444;8.522;2023-04-28T00:52:43;77520.94;;;-3.47;90.09
13954;BME280;7049;49.444;8.522;2023-04-28T00:57:45;77516.78;;;-3.47;90.96
13954;BME280;7049;49.444;8.522;2023-04-28T01:02:47;77516.78;;;-3.47;91.54
13954;BME280;7049;49.444;8.522;2023-04-28T01:07:49;77506.31;;;-3.47;92.22
13954;BME280;7049;49.444;8.522;2023-04-28T01:12:51;77495.84;;;-3.47;92.91
13954;BME280;7049;49.444;8.522;2023-04-28T01:17:52;77500.03;;;-3.47;93.08
13954;BME280;7049;49.444;8.522;2023-04-28T01:22:55;77493.75;;;-3.47;93.19
13954;BME280;7049;49.444;8.522;2023-04-28T01:27:58;77500.03;;;-3.47;93.89
13954;BME280;7049;49.444;8.522;2023-04-28T01:32:59;77497.94;;;-3.47;94.35
13954;BME280;7049;49.444;8.522;2023-04-28T01:38:00;77495.84;;;-3.47;94.39
13954;BME280;7049;49.444;8.522;2023-04-28T01:43:03;77504.22;;;-3.47;94.38
13954;BME280;7049;49.444;8.522;2023-04-28T01:48:05;77506.31;;;-3.47;95.27
13954;BME280;7049;49.444;8.522;2023-04-28T01:53:06;77502.13;;;-3.47;95.63
13954;BME280;7049;49.444;8.522;2023-04-28T01:58:09;77500.03;;;-3.47;95.56
13954;BME280;7049;49.444;8.522;2023-04-28T02:03:10;77506.31;;;-3.47;95.41
13954;BME280;7049;49.444;8.522;2023-04-28T02:08:12;77500.03;;;-3.47;95.31
13954;BME280;7049;49.444;8.522;2023-04-28T02:13:14;77504.22;;;-3.47;95.49
13954;BME280;7049;49.444;8.522;2023-04-28T02:18:16;77502.13;;;-3.47;95.06
13954;BME280;7049;49.444;8.522;2023-04-28T02:23:18;77502.13;;;-3.47;94.85
13954;BME280;7049;49.444;8.522;2023-04-28T02:28:21;77493.75;;;-3.47;94.79
13954;BME280;7049;49.444;8.522;2023-04-28T02:33:22;77495.84;;;-3.47;94.31
13954;BME280;7049;49.444;8.522;2023-04-28T02:38:23;77497.94;;;-3.47;94.20
13954;BME280;7049;49.444;8.522;2023-04-28T02:43:26;77504.22;;;-3.47;94.44
13954;BME280;7049;49.444;8.522;2023-04-28T02:48:28;77514.69;;;-3.47;94.49
13954;BME280;7049;49.444;8.522;2023-04-28T02:53:30;77514.69;;;-3.47;94.17
13954;BME280;7049;49.444;8.522;2023-04-28T02:58:32;77504.22;;;-3.47;93.42
13954;BME280;7049;49.444;8.522;2023-04-28T03:03:34;77487.47;;;-3.47;93.80
13954;BME280;7049;49.444;8.522;2023-04-28T03:08:35;77483.28;;;-3.47;94.21
13954;BME280;7049;49.444;8.522;2023-04-28T03:13:38;77487.47;;;-3.47;94.52
13954;BME280;7049;49.444;8.522;2023-04-28T03:18:39;77495.84;;;-3.47;94.68
13954;BME280;7049;49.444;8.522;2023-04-28T03:23:41;77479.09;;;-3.47;95.24
13954;BME280;7049;49.444;8.522;2023-04-28T03:28:43;77472.84;;;-3.47;96.04
13954;BME280;7049;49.444;8.522;2023-04-28T03:33:45;77472.84;;;-3.47;96.47
13954;BME280;7049;49.444;8.522;2023-04-28T03:38:46;77474.94;;;-3.47;96.94
13954;BME280;7049;49.444;8.522;2023-04-28T03:43:49;77477.03;;;-3.47;97.32
13954;BME280;7049;49.444;8.522;2023-04-28T03:48:51;77479.09;;;-3.47;97.17
13954;BME280;7049;49.444;8.522;2023-04-28T03:53:52;77491.66;;;-3.47;96.91
13954;BME280;7049;49.444;8.522;2023-04-28T03:58:55;77485.38;;;-3.47;95.52
13954;BME280;7049;49.444;8.522;2023-04-28T04:03:56;77481.19;;;-3.47;95.47
13954;BME280;7049;49.444;8.522;2023-04-28T04:08:58;77495.84;;;-3.47;95.28
13954;BME280;7049;49.444;8.522;2023-04-28T04:14:01;77504.22;;;-3.47;94.74
13954;BME280;7049;49.444;8.522;2023-04-28T04:19:02;77504.22;;;-3.47;95.01
13954;BME280;7049;49.444;8.522;2023-04-28T04:24:04;77514.69;;;-3.47;94.82
13954;BME280;7049;49.444;8.522;2023-04-28T04:29:08;77510.50;;;-3.47;94.88
13954;BME280;7049;49.444;8.522;2023-04-28T04:34:09;77504.22;;;-3.47;94.68
13954;BME280;7049;49.444;8.522;2023-04-28T04:39:11;77504.22;;;-3.47;93.65
13954;BME280;7049;49.444;8.522;2023-04-28T04:44:14;77512.59;;;-3.47;93.65
13954;BME280;7049;49.444;8.522;2023-04-28T04:49:15;77516.78;;;-3.47;93.51
13954;BME280;7049;49.444;8.522;2023-04-28T04:54:17;77516.78;;;-3.47;93.83
13954;BME280;7049;49.444;8.522;2023-04-28T04:59:19;77516.78;;;-3.47;94.63
13954;BME280;7049;49.444;8.522;2023-04-28T05:04:21;77520.94;;;-3.47;95.57
13954;BME280;7049;49.444;8.522;2023-04-28T05:09:22;77516.78;;;-3.47;95.92
13954;BME280;7049;49.444;8.522;2023-04-28T05:14:25;77520.94;;;-3.47;96.86
13954;BME280;7049;49.444;8.522;2023-04-28T05:19:26;77508.41;;;-3.47;97.98
13954;BME280;7049;49.444;8.522;2023-04-28T05:24:28;77508.41;;;-3.47;98.60
13954;BME280;7049;49.444;8.522;2023-04-28T05:29:31;77500.03;;;-3.47;99.85
13954;BME280;7049;49.444;8.522;2023-04-28T05:34:32;77514.69;;;-3.47;100.00
13954;BME280;7049;49.444;8.522;2023-04-28T05:39:33;77506.31;;;-3.47;100.00
13954;BME280;7049;49.444;8.522;2023-04-28T05:44:36;77518.84;;;-3.47;100.00
13954;BME280;7049;49.444;8.522;2023-04-28T05:49:38;77510.50;;;-3.47;100.00
13954;BME280;7049;49.444;8.522;2023-04-28T05:54:39;77518.84;;;-3.47;100.00
13954;BME280;7049;49.444;8.522;2023-04-28T05:59:42;77520.94;;;-3.47;100.00
13954;BME280;7049;49.444;8.522;2023-04-28T06:04:43;77525.13;;;-3.47;100.00
13954;BME280;7049;49.444;8.522;2023-04-28T06:09:45;77533.50;;;-3.47;100.00
13954;BME280;7049;49.444;8.522;2023-04-28T06:14:48;77550.25;;;-3.47;100.00
13954;BME280;7049;49.444;8.522;2023-04-28T06:19:52;77554.44;;;-3.47;100.00
13954;BME280;7049;49.444;8.522;2023-04-28T06:24:53;77550.25;;;-3.47;100.00
13954;BME280;7049;49.444;8.522;2023-04-28T06:29:56;77525.13;;;-3.47;100.00
13954;BME280;7049;49.444;8.522;2023-04-28T06:34:58;77533.50;;;-3.47;100.00
13954;BME280;7049;49.444;8.522;2023-04-28T06:39:59;77527.22;;;-3.47;100.00
13954;BME280;7049;49.444;8.522;2023-04-28T06:45:02;77523.03;;;-3.47;100.00
13954;BME280;7049;49.444;8.522;2023-04-28T06:50:04;77525.13;;;-3.47;100.00
13954;BME280;7049;49.444;8.522;2023-04-28T06:55:07;77529.31;;;-3.47;100.00
13954;BME280;7049;49.444;8.522;2023-04-28T07:00:11;77525.13;;;-3.47;100.00
13954;BME280;7049;49.444;8.522;2023-04-28T07:05:13;77525.13;;;-3.47;100.00
13954;BME280;7049;49.444;8.522;2023-04-28T07:10:17;77514.69;;;-3.47;100.00
13954;BME280;7049;49.444;8.522;2023-04-28T07:15:20;77508.41;;;-3.47;100.00
13954;BME280;7049;49.444;8.522;2023-04-28T07:20:23;77510.50;;;-3.47;100.00
13954;BME280;7049;49.444;8.522;2023-04-28T07:25:24;77502.13;;;-3.47;100.00
13954;BME280;7049;49.444;8.522;2023-04-28T07:30:27;77487.47;;;-3.47;100.00
13954;BME280;7049;49.444;8.522;2023-04-28T07:35:28;77466.56;;;-3.47;100.00
13954;BME280;7049;49.444;8.522;2023-04-28T07:40:30;77447.72;;;-3.47;100.00
13954;BME280;7049;49.444;8.522;2023-04-28T07:45:36;77437.25;;;-3.47;100.00
13954;BME280;7049;49.444;8.522;2023-04-28T07:50:38;77416.34;;;-3.47;100.00
13954;BME280;7049;49.444;8.522;2023-04-28T07:55:39;77424.72;;;-3.47;100.00
13954;BME280;7049;49.444;8.522;2023-04-28T08:00:45;77431.00;;;-3.47;100.00
13954;BME280;7049;49.444;8.522;2023-04-28T08:05:46;77424.72;;;-3.47;100.00
13954;BME280;7049;49.444;8.522;2023-04-28T08:10:48;77426.81;;;-3.47;100.00
13954;BME280;7049;49.444;8.522;2023-04-28T08:15:51;77401.69;;;-3.47;100.00
13954;BME280;7049;49.444;8.522;2023-04-28T08:20:52;77412.16;;;-3.47;100.00
13954;BME280;7049;49.444;8.522;2023-04-28T08:25:54;77399.59;;;-3.47;100.00
13954;BME280;7049;49.444;8.522;2023-04-28T08:30:57;77399.59;;;-3.47;100.00
13954;BME280;7049;49.444;8.522;2023-04-28T08:36:01;77387.06;;;-3.47;100.00
13954;BME280;7049;49.444;8.522;2023-04-28T08:41:03;77378.69;;;-3.47;100.00
13954;BME280;7049;49.444;8.522;2023-04-28T08:46:06;77378.69;;;-3.47;100.00
13954;BME280;7049;49.444;8.522;2023-04-28T08:51:08;77359.84;;;-3.47;100.00
13954;BME280;7049;49.444;8.522;2023-04-28T08:56:11;77353.56;;;-3.47;100.00
13954;BME280;7049;49.444;8.522;2023-04-28T09:01:18;77343.13;;;-3.47;100.00
13954;BME280;7049;49.444;8.522;2023-04-28T09:06:32;77328.47;;;-3.47;100.00
13954;BME280;7049;49.444;8.522;2023-04-28T09:11:59;77324.28;;;-3.47;100.00
13954;BME280;7049;49.444;8.522;2023-04-28T09:17:13;77324.28;;;-3.47;100.00
13954;BME280;7049;49.444;8.522;2023-04-28T09:22:15;77313.81;;;-3.47;100.00
13954;BME280;7049;49.444;8.522;2023-04-28T09:27:28;77299.19;;;-3.47;100.00
13954;BME280;7049;49.444;8.522;2023-04-28T09:32:35;77295.00;;;-3.47;100.00
13954;BME280;7049;49.444;8.522;2023-04-28T09:37:40;77278.25;;;-3.47;100.00
13954;BME280;7049;49.444;8.522;2023-04-28T10:07:04;77219.69;;;-3.47;100.00
13954;BME280;7049;49.444;8.522;2023-04-28T10:18:41;77215.50;;;-3.47;100.00
13954;BME280;7049;49.444;8.522;2023-04-28T10:30:19;77211.31;;;-3.47;100.00
13954;BME280;7049;49.444;8.522;2023-04-28T10:42:05;77196.66;;;-3.47;100.00
13954;BME280;7049;49.444;8.522;2023-04-28T11:05:20;77161.09;;;-3.47;100.00
13954;BME280;7049;49.444;8.522;2023-04-28T11:16:24;77144.38;;;-3.47;100.00
13954;BME280;7049;49.444;8.522;2023-04-28T11:21:27;77133.91;;;-3.47;100.00
13954;BME280;7049;49.444;8.522;2023-04-28T11:26:29;77123.44;;;-3.47;100.00
13954;BME280;7049;49.444;8.522;2023-04-28T11:31:32;77131.81;;;-3.47;100.00
13954;BME280;7049;49.444;8.522;2023-04-28T11:36:36;77115.06;;;-3.47;100.00
13954;BME280;7049;49.444;8.522;2023-04-28T11:41:39;77125.53;;;-3.47;100.00
13954;BME280;7049;49.444;8.522;2023-04-28T11:46:45;77115.06;;;-3.47;100.00
13954;BME280;7049;49.444;8.522;2023-04-28T11:51:51;77104.63;;;-3.47;100.00
13954;BME280;7049;49.444;8.522;2023-04-28T11:56:54;77102.53;;;-3.47;100.00
13954;BME280;7049;49.444;8.522;2023-04-28T12:01:57;77115.06;;;-3.47;100.00
13954;BME280;7049;49.444;8.522;2023-04-28T12:07:02;77119.25;;;-3.47;100.00
13954;BME280;7049;49.444;8.522;2023-04-28T12:12:05;77112.97;;;-3.47;100.00
13954;BME280;7049;49.444;8.522;2023-04-28T12:17:07;77117.16;;;-3.47;100.00
13954;BME280;7049;49.444;8.522;2023-04-28T12:22:09;77119.25;;;-3.47;100.00
13954;BME280;7049;49.444;8.522;2023-04-28T12:27:16;77125.53;;;-3.47;100.00
13954;BME280;7049;49.444;8.522;2023-04-28T12:32:36;77094.16;;;-3.47;100.00
13954;BME280;7049;49.444;8.522;2023-04-28T12:37:40;77064.88;;;-3.47;100.00
13954;BME280;7049;49.444;8.522;2023-04-28T12:42:42;77048.13;;;-3.47;100.00
13954;BME280;7049;49.444;8.522;2023-04-28T12:47:43;77033.47;;;-3.47;100.00
13954;BME280;7049;49.444;8.522;2023-04-28T12:52:46;77023.03;;;-3.47;100.00
13954;BME280;7049;49.444;8.522;2023-04-28T12:57:48;77010.47;;;-3.47;100.00
13954;BME280;7049;49.444;8.522;2023-04-28T13:02:49;76997.91;;;-3.47;100.00
13954;BME280;7049;49.444;8.522;2023-04-28T13:07:53;76993.75;;;-3.47;100.00
13954;BME280;7049;49.444;8.522;2023-04-28T13:12:55;76977.00;;;-3.47;100.00
13954;BME280;7049;49.444;8.522;2023-04-28T13:17:57;76956.09;;;-3.47;100.00
13954;BME280;7049;49.444;8.522;2023-04-28T13:23:00;76930.97;;;-3.47;100.00
13954;BME280;7049;49.444;8.522;2023-04-28T13:28:01;76918.44;;;-3.47;100.00
13954;BME280;7049;49.444;8.522;2023-04-28T13:33:03;76912.16;;;-3.47;100.00
13954;BME280;7049;49.444;8.522;2023-04-28T13:38:06;76905.88;;;-3.47;100.00
13954;BME280;7049;49.444;8.522;2023-04-28T13:43:07;76887.06;;;-3.47;100.00
13954;BME280;7049;49.444;8.522;2023-04-28T13:48:08;76859.84;;;-3.47;100.00
13954;BME280;7049;49.444;8.522;2023-04-28T13:53:12;76841.03;;;-3.47;100.00
13954;BME280;7049;49.444;8.522;2023-04-28T13:58:14;76809.66;;;-3.47;100.00
13954;BME280;7049;49.444;8.522;2023-04-28T14:03:16;76774.09;;;-3.47;100.00
13954;BME280;7049;49.444;8.522;2023-04-28T14:08:20;76761.53;;;-3.47;100.00
13954;BME280;7049;49.444;8.522;2023-04-28T14:13:22;76748.97;;;-3.47;100.00
13954;BME280;7049;49.444;8.522;2023-04-28T14:18:23;76744.81;;;-3.47;100.00
13954;BME280;7049;49.444;8.522;2023-04-28T14:23:26;76751.06;;;-3.47;100.00
13954;BME280;7049;49.444;8.522;2023-04-28T14:28:28;76765.72;;;-3.47;100.00
13954;BME280;7049;49.444;8.522;2023-04-28T14:33:29;76769.91;;;-3.47;100.00
13954;BME280;7049;49.444;8.522;2023-04-28T14:38:32;76751.06;;;-3.47;100.00
13954;BME280;7049;49.444;8.522;2023-04-28T14:43:33;76822.19;;;-3.47;100.00
13954;BME280;7049;49.444;8.522;2023-04-28T14:48:35;76824.28;;;-3.47;100.00
13954;BME280;7049;49.444;8.522;2023-04-28T14:53:38;76947.72;;;-3.47;100.00
13954;BME280;7049;49.444;8.522;2023-04-28T14:58:39;76947.72;;;-3.47;100.00
13954;BME280;7049;49.444;8.522;2023-04-28T15:03:41;76970.72;;;-3.47;100.00
13954;BME280;7049;49.444;8.522;2023-04-28T15:08:44;76962.34;;;-3.47;100.00
13954;BME280;7049;49.444;8.522;2023-04-28T15:13:46;76956.09;;;-3.47;100.00
13954;BME280;7049;49.444;8.522;2023-04-28T15:18:47;76958.16;;;-3.47;100.00
13954;BME280;7049;49.444;8.522;2023-04-28T15:23:50;76972.81;;;-3.47;100.00
13954;BME280;7049;49.444;8.522;2023-04-28T15:28:51;76964.44;;;-3.47;100.00
13954;BME280;7049;49.444;8.522;2023-04-28T15:33:53;76951.91;;;-3.47;100.00
13954;BME280;7049;49.444;8.522;2023-04-28T15:38:56;76935.16;;;-3.47;100.00
13954;BME280;7049;49.444;8.522;2023-04-28T15:44:00;76910.06;;;-3.47;100.00
13954;BME280;7049;49.444;8.522;2023-04-28T15:49:01;76901.69;;;-3.47;100.00
13954;BME280;7049;49.444;8.522;2023-04-28T15:54:04;76897.50;;;-3.47;100.00
13954;BME280;7049;49.444;8.522;2023-04-28T15:59:05;76897.50;;;-3.47;100.00
13954;BME280;7049;49.444;8.522;2023-04-28T16:04:09;76893.31;;;-3.47;100.00
13954;BME280;7049;49.444;8.522;2023-04-28T16:09:12;76884.97;;;-3.47;100.00
13954;BME280;7049;49.444;8.522;2023-04-28T16:14:14;76855.66;;;-3.47;100.00
13954;BME280;7049;49.444;8.522;2023-04-28T16:19:15;76778.28;;;-3.47;100.00
13954;BME280;7049;49.444;8.522;2023-04-28T16:24:18;76713.44;;;-3.47;100.00
13954;BME280;7049;49.444;8.522;2023-04-28T16:29:21;76667.41;;;-3.47;100.00
13954;BME280;7049;49.444;8.522;2023-04-28T16:34:23;76648.56;;;-3.47;100.00
13954;BME280;7049;49.444;8.522;2023-04-28T16:39:26;76625.56;;;-3.47;100.00
13954;BME280;7049;49.444;8.522;2023-04-28T16:44:28;76638.13;;;-3.47;100.00
13954;BME280;7049;49.444;8.522;2023-04-28T16:49:29;76646.50;;;-3.47;100.00
13954;BME280;7049;49.444;8.522;2023-04-28T16:54:32;76669.50;;;-3.47;99.93
13954;BME280;7049;49.444;8.522;2023-04-28T16:59:33;76684.13;;;-3.47;100.00
13954;BME280;7049;49.444;8.522;2023-04-28T17:04:35;76684.13;;;-3.47;100.00
13954;BME280;7049;49.444;8.522;2023-04-28T17:09:38;76671.59;;;-3.47;100.00
13954;BME280;7049;49.444;8.522;2023-04-28T17:14:39;76629.75;;;-3.47;98.37
13954;BME280;7049;49.444;8.522;2023-04-28T17:19:41;76625.56;;;-3.47;97.24
13954;BME280;7049;49.444;8.522;2023-04-28T17:24:43;76575.38;;;-3.47;96.01
13954;BME280;7049;49.444;8.522;2023-04-28T17:29:45;76508.44;;;-3.47;92.24
13954;BME280;7049;49.444;8.522;2023-04-28T17:34:46;76533.53;;;-3.47;92.51
13954;BME280;7049;49.444;8.522;2023-04-28T17:39:49;76456.16;;;-3.47;88.95
13954;BME280;7049;49.444;8.522;2023-04-28T17:44:51;76508.44;;;-3.47;89.72
13954;BME280;7049;49.444;8.522;2023-04-28T17:49:53;76617.19;;;-3.47;92.97
13954;BME280;7049;49.444;8.522;2023-04-28T17:54:56;76688.31;;;-3.47;95.49
13954;BME280;7049;49.444;8.522;2023-04-28T17:59:57;76738.53;;;-3.47;97.37
13954;BME280;7049;49.444;8.522;2023-04-28T18:04:59;76786.63;;;-3.47;100.00
13954;BME280;7049;49.444;8.522;2023-04-28T18:10:02;76809.66;;;-3.47;100.00
13954;BME280;7049;49.444;8.522;2023-04-28T18:15:04;76834.75;;;-3.47;100.00
13954;BME280;7049;49.444;8.522;2023-04-28T18:20:08;76866.13;;;-3.47;100.00
13954;BME280;7049;49.444;8.522;2023-04-28T18:25:11;76889.13;;;-3.47;100.00
13954;BME280;7049;49.444;8.522;2023-04-28T18:30:15;76903.78;;;-3.47;100.00
13954;BME280;7049;49.444;8.522;2023-04-28T18:35:17;76916.34;;;-3.47;100.00
13954;BME280;7049;49.444;8.522;2023-04-28T18:40:20;76941.44;;;-3.47;100.00
13954;BME280;7049;49.444;8.522;2023-04-28T18:45:22;76951.91;;;-3.47;100.00
13954;BME280;7049;49.444;8.522;2023-04-28T18:50:42;76960.25;;;-3.47;100.00
13954;BME280;7049;49.444;8.522;2023-04-28T19:01:49;76991.66;;;-3.47;100.00
13954;BME280;7049;49.444;8.522;2023-04-28T19:07:07;77006.28;;;-3.47;100.00
13954;BME280;7049;49.444;8.522;2023-04-28T19:12:33;77020.94;;;-3.47;100.00
13954;BME280;7049;49.444;8.522;2023-04-28T19:18:32;77033.47;;;-3.47;100.00
13954;BME280;7049;49.444;8.522;2023-04-28T19:24:10;77052.31;;;-3.47;100.00
13954;BME280;7049;49.444;8.522;2023-04-28T19:29:21;77064.88;;;-3.47;100.00
13954;BME280;7049;49.444;8.522;2023-04-28T19:34:24;77075.31;;;-3.47;100.00
13954;BME280;7049;49.444;8.522;2023-04-28T19:39:26;77089.97;;;-3.47;100.00
13954;BME280;7049;49.444;8.522;2023-04-28T19:44:27;77106.72;;;-3.47;100.00
13954;BME280;7049;49.444;8.522;2023-04-28T19:49:30;77112.97;;;-3.47;100.00
13954;BME280;7049;49.444;8.522;2023-04-28T19:54:32;77129.72;;;-3.47;100.00
13954;BME280;7049;49.444;8.522;2023-04-28T19:59:37;77129.72;;;-3.47;100.00
13954;BME280;7049;49.444;8.522;2023-04-28T20:04:41;77127.63;;;-3.47;100.00
13954;BME280;7049;49.444;8.522;2023-04-28T20:09:42;77138.09;;;-3.47;100.00
13954;BME280;7049;49.444;8.522;2023-04-28T20:20:52;77136.00;;;-3.47;100.00
13954;BME280;7049;49.444;8.522;2023-04-28T20:26:57;77123.44;;;-3.47;100.00
13954;BME280;7049;49.444;8.522;2023-04-28T20:44:34;77110.88;;;-3.47;100.00
13954;BME280;7049;49.444;8.522;2023-04-28T20:51:00;77115.06;;;-3.47;100.00
13954;BME280;7049;49.444;8.522;2023-04-28T21:01:00;77136.00;;;-3.47;100.00
13954;BME280;7049;49.444;8.522;2023-04-28T21:06:02;77146.44;;;-3.47;100.00
13954;BME280;7049;49.444;8.522;2023-04-28T21:11:10;77154.81;;;-3.47;100.00
13954;BME280;7049;49.444;8.522;2023-04-28T21:16:14;77175.75;;;-3.47;100.00
13954;BME280;7049;49.444;8.522;2023-04-28T21:21:16;77194.56;;;-3.47;100.00
13954;BME280;7049;49.444;8.522;2023-04-28T21:26:17;77202.94;;;-3.47;100.00
13954;BME280;7049;49.444;8.522;2023-04-28T21:31:22;77217.59;;;-3.47;100.00
13954;BME280;7049;49.444;8.522;2023-04-28T21:36:24;77232.22;;;-3.47;100.00
13954;BME280;7049;49.444;8.522;2023-04-28T21:41:27;77253.16;;;-3.47;100.00
13954;BME280;7049;49.444;8.522;2023-04-28T21:46:30;77257.34;;;-3.47;100.00
13954;BME280;7049;49.444;8.522;2023-04-28T21:51:31;77261.53;;;-3.47;100.00
13954;BME280;7049;49.444;8.522;2023-04-28T21:56:33;77265.69;;;-3.47;100.00
13954;BME280;7049;49.444;8.522;2023-04-28T22:01:36;77282.44;;;-3.47;100.00
13954;BME280;7049;49.444;8.522;2023-04-28T22:06:38;77292.91;;;-3.47;100.00
13954;BME280;7049;49.444;8.522;2023-04-28T22:11:39;77299.19;;;-3.47;100.00
13954;BME280;7049;49.444;8.522;2023-04-28T22:16:43;77315.91;;;-3.47;100.00
13954;BME280;7049;49.444;8.522;2023-04-28T22:21:44;77320.09;;;-3.47;100.00
13954;BME280;7049;49.444;8.522;2023-04-28T22:26:46;77328.47;;;-3.47;100.00
13954;BME280;7049;49.444;8.522;2023-04-28T22:31:49;77345.22;;;-3.47;100.00
13954;BME280;7049;49.444;8.522;2023-04-28T22:36:51;77347.28;;;-3.47;100.00
13954;BME280;7049;49.444;8.522;2023-04-28T22:41:52;77366.13;;;-3.47;100.00
13954;BME280;7049;49.444;8.522;2023-04-28T22:46:55;77368.22;;;-3.47;100.00
13954;BME280;7049;49.444;8.522;2023-04-28T22:51:56;77374.50;;;-3.47;100.00
13954;BME280;7049;49.444;8.522;2023-04-28T22:56:59;77387.06;;;-3.47;100.00
13954;BME280;7049;49.444;8.522;2023-04-28T23:02:04;77403.78;;;-3.47;100.00
13954;BME280;7049;49.444;8.522;2023-04-28T23:07:06;77407.97;;;-3.47;100.00
13954;BME280;7049;49.444;8.522;2023-04-28T23:12:08;77407.97;;;-3.47;100.00
13954;BME280;7049;49.444;8.522;2023-04-28T23:17:11;77426.81;;;-3.47;100.00
13954;BME280;7049;49.444;8.522;2023-04-28T23:22:12;77433.06;;;-3.47;100.00
13954;BME280;7049;49.444;8.522;2023-04-28T23:27:14;77443.53;;;-3.47;100.00
13954;BME280;7049;49.444;8.522;2023-04-28T23:32:17;77454.00;;;-3.47;100.00
13954;BME280;7049;49.444;8.522;2023-04-28T23:37:18;77470.75;;;-3.47;100.00
13954;BME280;7049;49.444;8.522;2023-04-28T23:42:19;77479.09;;;-3.47;100.00
13954;BME280;7049;49.444;8.522;2023-04-28T23:47:22;77483.28;;;-3.47;100.00
13954;BME280;7049;49.444;8.522;2023-04-28T23:52:24;77491.66;;;-3.47;100.00
13954;BME280;7049;49.444;8.522;2023-04-28T23:57:26;77489.56;;;-3.47;100.00
